Time;durP1;ratioP1;P1;durP2;ratioP2;P2;SDS_P1;SDS_P2;PMS_P1;PMS_P2;Temp;Humidity;BMP_temperature;BMP_pressure;BME280_temperature;BME280_humidity;BME280_pressure;Samples;Min_cycle;Max_cycle;Signal;HPM_P1;HPM_P2
2021/03/12 00:00:31;;;;;;;52.40;21.27;;;2.30;92.20;;;;;;4156592;28;20290;-61
2021/03/12 00:02:32;;;;;;;43.23;21.97;;;2.30;92.40;;;;;;4157326;28;20632;-62
2021/03/12 00:04:33;;;;;;;50.30;22.17;;;2.40;92.20;;;;;;4156801;28;20325;-61
2021/03/12 00:06:35;;;;;;;49.80;21.47;;;2.40;92.30;;;;;;4134357;28;638210;-62
2021/03/12 00:08:43;;;;;;;48.27;21.33;;;2.40;92.20;;;;;;4157315;28;20080;-61
2021/03/12 00:10:44;;;;;;;39.43;20.20;;;2.40;92.10;;;;;;4139528;28;20279;-61
2021/03/12 00:12:46;;;;;;;43.40;20.10;;;2.40;91.70;;;;;;4158101;28;20744;-62
2021/03/12 00:14:47;;;;;;;42.47;21.40;;;2.40;91.70;;;;;;4156970;28;20646;-61
2021/03/12 00:16:48;;;;;;;45.83;20.87;;;2.40;91.80;;;;;;4157712;28;20325;-62
2021/03/12 00:18:49;;;;;;;42.93;19.87;;;2.50;91.30;;;;;;4156014;28;20332;-64
2021/03/12 00:20:50;;;;;;;45.67;21.00;;;2.50;91.20;;;;;;4157915;28;20408;-61
2021/03/12 00:22:51;;;;;;;35.57;18.87;;;2.50;90.90;;;;;;4156760;28;20266;-61
2021/03/12 00:24:52;;;;;;;38.50;20.17;;;2.50;90.90;;;;;;4157660;28;20262;-61
2021/03/12 00:26:58;;;;;;;44.50;21.73;;;2.60;90.70;;;;;;4156780;28;20837;-63
2021/03/12 00:29:00;;;;;;;43.00;20.73;;;2.60;90.80;;;;;;4157094;28;20287;-61
2021/03/12 00:31:02;;;;;;;43.60;21.03;;;2.60;90.80;;;;;;4157494;28;20755;-61
2021/03/12 00:33:05;;;;;;;46.33;20.27;;;2.60;90.80;;;;;;4157297;28;20279;-69
2021/03/12 00:35:07;;;;;;;43.83;19.40;;;2.60;90.70;;;;;;4157377;28;20337;-61
2021/03/12 00:37:09;;;;;;;45.70;22.33;;;2.60;90.60;;;;;;4157177;28;20271;-61
2021/03/12 00:39:10;;;;;;;40.90;19.33;;;2.60;90.60;;;;;;4157848;28;20274;-63
2021/03/12 00:41:11;;;;;;;36.47;19.50;;;2.60;90.50;;;;;;4157042;28;20372;-63
2021/03/12 00:43:13;;;;;;;40.40;17.93;;;2.60;90.50;;;;;;4157364;28;20271;-63
2021/03/12 00:45:18;;;;;;;43.07;19.80;;;2.60;90.40;;;;;;4156795;28;20263;-62
2021/03/12 00:47:19;;;;;;;42.40;19.20;;;2.60;90.50;;;;;;4157135;28;20628;-65
2021/03/12 00:49:21;;;;;;;45.63;18.33;;;2.60;90.40;;;;;;4156833;28;20396;-62
2021/03/12 00:51:23;;;;;;;39.17;19.50;;;2.50;90.30;;;;;;4157495;28;21163;-61
2021/03/12 00:53:25;;;;;;;36.17;18.93;;;2.60;90.20;;;;;;4156314;28;20335;-65
2021/03/12 00:55:26;;;;;;;41.17;18.00;;;2.60;90.10;;;;;;4157226;28;20313;-62
2021/03/12 00:57:27;;;;;;;37.20;19.20;;;2.60;90.10;;;;;;4156302;28;20282;-62
2021/03/12 00:59:28;;;;;;;38.60;17.33;;;2.60;90.10;;;;;;4156513;28;20939;-62
2021/03/12 01:01:29;;;;;;;36.10;17.50;;;2.60;90.00;;;;;;4156616;28;20802;-63
2021/03/12 01:03:30;;;;;;;37.43;17.43;;;2.60;89.80;;;;;;4156458;28;21333;-62
2021/03/12 01:05:32;;;;;;;36.53;17.93;;;2.60;89.50;;;;;;4156620;28;20313;-61
2021/03/12 01:07:33;;;;;;;30.20;16.53;;;2.60;88.80;;;;;;4156429;28;20325;-62
2021/03/12 01:09:34;;;;;;;32.77;16.73;;;2.60;88.70;;;;;;4156892;28;20352;-64
2021/03/12 01:11:36;;;;;;;35.20;17.13;;;2.60;88.30;;;;;;4156234;28;20275;-62
2021/03/12 01:13:37;;;;;;;37.40;16.90;;;2.60;88.20;;;;;;4156379;28;20278;-61
2021/03/12 01:15:38;;;;;;;35.53;17.27;;;2.60;88.20;;;;;;4155380;28;20298;-68
2021/03/12 01:17:40;;;;;;;35.13;17.27;;;2.60;88.00;;;;;;4155899;28;20321;-61
2021/03/12 01:19:41;;;;;;;37.60;17.93;;;2.60;88.30;;;;;;4156244;28;20271;-61
2021/03/12 01:21:42;;;;;;;39.37;18.33;;;2.60;88.50;;;;;;4156380;28;20298;-60
2021/03/12 01:23:44;;;;;;;41.57;18.70;;;2.60;88.50;;;;;;4155632;28;20329;-62
2021/03/12 01:25:46;;;;;;;38.70;19.10;;;2.60;88.40;;;;;;4156344;28;20321;-65
2021/03/12 01:27:47;;;;;;;32.87;18.20;;;2.60;88.60;;;;;;4156102;28;20266;-60
2021/03/12 01:29:49;;;;;;;36.77;18.57;;;2.60;89.00;;;;;;4138560;28;20338;-61
2021/03/12 01:31:51;;;;;;;40.83;18.77;;;2.60;89.00;;;;;;4154923;28;20274;-61
2021/03/12 01:33:52;;;;;;;31.93;16.93;;;2.60;89.00;;;;;;4156719;28;20910;-61
2021/03/12 01:35:53;;;;;;;40.87;18.47;;;2.60;89.00;;;;;;4155794;28;20275;-62
2021/03/12 01:37:54;;;;;;;34.80;18.40;;;2.60;89.00;;;;;;4156510;28;20270;-61
2021/03/12 01:39:56;;;;;;;41.77;18.97;;;2.60;89.20;;;;;;4156123;28;20398;-60
2021/03/12 01:41:57;;;;;;;35.63;17.63;;;2.60;89.30;;;;;;4155531;28;20364;-61
2021/03/12 01:43:58;;;;;;;41.83;19.10;;;2.60;89.40;;;;;;4155911;28;20725;-67
2021/03/12 01:45:59;;;;;;;34.77;18.20;;;2.50;89.60;;;;;;4155464;28;20317;-61
2021/03/12 01:48:00;;;;;;;39.23;17.63;;;2.60;89.40;;;;;;4155823;28;20992;-59
2021/03/12 01:50:05;;;;;;;35.03;17.17;;;2.60;89.40;;;;;;4155025;28;20682;-63
2021/03/12 01:52:06;;;;;;;38.07;18.33;;;2.60;89.50;;;;;;4156819;28;20262;-61
2021/03/12 01:54:07;;;;;;;39.47;18.73;;;2.60;89.20;;;;;;4155033;28;20747;-63
2021/03/12 01:56:08;;;;;;;33.57;16.80;;;2.70;89.00;;;;;;4156092;28;20389;-62
2021/03/12 01:58:10;;;;;;;31.23;16.30;;;2.70;89.10;;;;;;4154955;28;20329;-61
2021/03/12 02:00:12;;;;;;;49.00;17.50;;;2.70;89.10;;;;;;4156306;28;20266;-63
2021/03/12 02:02:13;;;;;;;29.40;15.97;;;2.60;89.10;;;;;;4155397;28;20291;-66
2021/03/12 02:04:14;;;;;;;31.77;15.90;;;2.60;89.10;;;;;;4155119;28;20278;-61
2021/03/12 02:06:16;;;;;;;31.90;16.37;;;2.60;89.20;;;;;;4154958;28;20345;-61
2021/03/12 02:08:17;;;;;;;36.53;16.93;;;2.60;89.40;;;;;;4155408;28;20258;-65
2021/03/12 02:10:21;;;;;;;33.60;16.20;;;2.60;89.40;;;;;;4156347;28;20312;-62
2021/03/12 02:12:46;;;;;;;38.10;18.07;;;2.60;89.60;;;;;;4156003;28;20313;-65
2021/03/12 02:14:52;;;;;;;33.93;16.03;;;2.50;89.70;;;;;;4155517;28;20258;-62
2021/03/12 02:17:01;;;;;;;34.07;17.43;;;2.60;89.90;;;;;;4155583;28;20340;-61
2021/03/12 02:19:02;;;;;;;37.50;17.00;;;2.60;89.90;;;;;;4156018;28;20790;-61
2021/03/12 02:21:06;;;;;;;38.97;17.83;;;2.50;90.00;;;;;;4155301;28;20274;-61
2021/03/12 02:23:37;;;;;;;37.00;18.27;;;2.50;90.00;;;;;;4155827;28;20264;-62
2021/03/12 02:25:45;;;;;;;39.83;18.45;;;2.50;90.40;;;;;;4120058;28;20348;-59
2021/03/12 02:27:47;;;;;;;35.60;17.90;;;2.50;90.20;;;;;;4155323;28;20532;-64
2021/03/12 02:29:53;;;;;;;38.93;17.03;;;2.50;90.20;;;;;;4155211;28;21153;-65
2021/03/12 02:31:56;;;;;;;35.37;16.67;;;2.50;90.20;;;;;;4155177;28;21128;-63
2021/03/12 02:33:58;;;;;;;36.67;17.13;;;2.60;90.00;;;;;;4155330;28;20328;-58
2021/03/12 02:36:01;;;;;;;31.47;17.27;;;2.60;90.00;;;;;;4155136;28;20340;-64
2021/03/12 02:38:03;;;;;;;33.63;16.33;;;2.60;90.00;;;;;;4137633;28;20687;-69
2021/03/12 02:40:07;;;;;;;31.03;17.90;;;2.60;90.00;;;;;;4155884;28;20336;-60
2021/03/12 02:42:08;;;;;;;33.20;17.30;;;2.60;90.00;;;;;;4155028;28;20283;-60
2021/03/12 02:44:10;;;;;;;33.47;16.83;;;2.60;90.00;;;;;;4155671;28;20301;-64
2021/03/12 02:46:12;;;;;;;51.33;18.93;;;2.70;90.00;;;;;;4154445;28;20286;-66
2021/03/12 02:48:15;;;;;;;47.97;20.60;;;2.70;89.90;;;;;;4155935;28;20894;-60
2021/03/12 02:50:17;;;;;;;50.03;18.03;;;2.80;89.70;;;;;;4135927;28;20275;-53
2021/03/12 02:52:20;;;;;;;39.77;18.47;;;2.80;89.80;;;;;;4155610;28;20278;-57
2021/03/12 02:54:22;;;;;;;40.13;17.97;;;2.80;90.00;;;;;;4154806;28;21427;-64
2021/03/12 02:56:23;;;;;;;49.53;21.70;;;2.80;89.90;;;;;;4154891;28;20788;-60
2021/03/12 02:58:25;;;;;;;39.47;20.70;;;2.80;89.90;;;;;;4154013;28;20318;-58
2021/03/12 03:00:26;;;;;;;49.90;22.57;;;2.90;89.90;;;;;;4154488;28;20292;-61
2021/03/12 03:02:28;;;;;;;45.90;19.93;;;2.90;89.70;;;;;;4155004;28;20333;-65
2021/03/12 03:04:30;;;;;;;42.43;20.33;;;3.00;89.70;;;;;;4155526;28;20275;-63
2021/03/12 03:06:31;;;;;;;38.10;20.13;;;2.90;89.50;;;;;;4154915;28;20852;-61
2021/03/12 03:08:35;;;;;;;39.60;20.10;;;3.00;89.30;;;;;;4154793;28;20718;-68
2021/03/12 03:10:37;;;;;;;39.73;19.73;;;3.00;89.80;;;;;;4138047;28;20287;-61
2021/03/12 03:12:40;;;;;;;40.73;20.73;;;3.00;89.20;;;;;;4154519;28;21131;-60
2021/03/12 03:14:45;;;;;;;42.57;19.33;;;3.00;89.30;;;;;;4154847;28;20271;-60
2021/03/12 03:16:48;;;;;;;42.70;19.73;;;3.00;89.20;;;;;;4154072;28;20321;-67
2021/03/12 03:18:50;;;;;;;40.50;20.93;;;3.10;89.10;;;;;;4155127;28;20271;-60
2021/03/12 03:20:54;;;;;;;36.63;19.53;;;3.10;88.70;;;;;;4154707;28;20263;-63
2021/03/12 03:22:55;;;;;;;47.30;20.77;;;3.10;88.70;;;;;;4154856;28;20303;-64
2021/03/12 03:24:56;;;;;;;42.53;21.27;;;3.10;89.00;;;;;;4154146;28;20870;-60
2021/03/12 03:26:58;;;;;;;40.97;20.70;;;2.90;89.80;;;;;;4155688;28;20267;-63
2021/03/12 03:28:59;;;;;;;38.23;20.43;;;2.90;90.00;;;;;;4154320;28;20534;-58
2021/03/12 03:31:04;;;;;;;44.33;19.80;;;2.90;90.20;;;;;;4154868;28;20368;-60
2021/03/12 03:33:05;;;;;;;48.50;21.20;;;2.90;90.30;;;;;;4154884;28;22106;-63
2021/03/12 03:35:09;;;;;;;39.10;20.47;;;2.90;90.50;;;;;;4155140;28;20267;-63
2021/03/12 03:37:11;;;;;;;44.93;21.70;;;3.00;90.80;;;;;;4154747;28;20267;-60
2021/03/12 03:39:12;;;;;;;41.77;20.20;;;3.00;91.50;;;;;;4154696;28;20274;-61
2021/03/12 03:41:16;;;;;;;42.03;20.40;;;2.90;91.50;;;;;;4154629;28;21288;-60
2021/03/12 03:43:26;;;;;;;40.33;19.97;;;2.90;91.70;;;;;;4155040;28;20333;-61
2021/03/12 03:45:29;;;;;;;32.83;16.70;;;2.90;92.50;;;;;;4157791;28;20276;-60
2021/03/12 03:47:32;;;;;;;33.17;16.80;;;2.80;92.50;;;;;;4157880;28;20747;-60
2021/03/12 03:49:38;;;;;;;35.60;18.63;;;2.80;92.90;;;;;;4158117;28;20258;-62
2021/03/12 03:51:41;;;;;;;35.20;18.83;;;2.80;93.70;;;;;;4157983;28;20298;-67
2021/03/12 03:53:43;;;;;;;41.47;18.93;;;2.80;94.50;;;;;;4157740;28;21023;-66
2021/03/12 03:55:44;;;;;;;41.50;20.13;;;2.70;97.30;;;;;;4156954;28;20670;-61
2021/03/12 03:57:46;;;;;;;49.00;23.20;;;2.50;99.80;;;;;;4157738;28;20781;-64
2021/03/12 03:59:48;;;;;;;49.20;20.73;;;2.40;99.90;;;;;;4156774;28;20366;-60
2021/03/12 04:01:49;;;;;;;38.43;18.33;;;2.30;99.90;;;;;;4157690;28;20408;-61
2021/03/12 04:03:52;;;;;;;37.60;19.43;;;2.10;99.90;;;;;;4157052;28;21056;-62
2021/03/12 04:05:55;;;;;;;43.67;20.17;;;2.00;99.90;;;;;;4157945;28;20271;-63
2021/03/12 04:07:58;;;;;;;38.17;18.87;;;2.00;99.90;;;;;;4157509;28;20300;-63
2021/03/12 04:10:00;;;;;;;39.43;15.60;;;1.90;99.90;;;;;;4140181;28;20349;-60
2021/03/12 04:12:01;;;;;;;40.80;17.50;;;2.00;99.90;;;;;;4140124;28;20272;-61
2021/03/12 04:14:03;;;;;;;37.97;18.80;;;2.00;99.90;;;;;;4157168;28;20309;-62
2021/03/12 04:16:05;;;;;;;34.70;18.13;;;1.90;99.90;;;;;;4157270;28;20624;-62
2021/03/12 04:18:06;;;;;;;35.30;18.40;;;1.80;99.90;;;;;;4157067;28;20275;-61
2021/03/12 04:20:08;;;;;;;31.80;16.97;;;1.60;99.90;;;;;;4140422;28;20322;-66
2021/03/12 04:22:11;;;;;;;35.40;17.40;;;1.40;99.90;;;;;;4140955;28;20338;-61
2021/03/12 04:24:13;;;;;;;31.37;15.70;;;1.30;99.90;;;;;;4149660;28;20291;-65
2021/03/12 04:26:14;;;;;;;31.80;17.03;;;1.10;99.90;;;;;;4157558;28;20263;-61
2021/03/12 04:28:16;;;;;;;31.20;16.67;;;1.00;99.90;;;;;;4156613;28;20755;-62
2021/03/12 04:30:18;;;;;;;32.97;17.60;;;0.90;99.90;;;;;;4155841;28;21115;-62
2021/03/12 04:32:20;;;;;;;35.97;16.93;;;0.80;99.90;;;;;;4156910;28;20275;-60
2021/03/12 04:34:22;;;;;;;34.00;17.77;;;0.70;99.90;;;;;;4156622;28;20674;-61
2021/03/12 04:36:25;;;;;;;38.77;18.20;;;0.70;99.90;;;;;;4157586;28;20279;-61
2021/03/12 04:38:26;;;;;;;32.73;17.40;;;0.60;99.90;;;;;;4140459;28;20345;-61
2021/03/12 04:40:28;;;;;;;36.80;18.10;;;0.60;99.90;;;;;;4141399;28;20337;-56
2021/03/12 04:42:29;;;;;;;35.20;17.47;;;0.50;99.90;;;;;;4140578;28;20291;-64
2021/03/12 04:44:31;;;;;;;36.87;19.33;;;0.50;99.90;;;;;;4140811;28;20361;-61
2021/03/12 04:46:35;;;;;;;39.80;18.77;;;0.60;99.90;;;;;;4140856;28;20698;-62
2021/03/12 04:48:38;;;;;;;36.13;18.50;;;0.50;99.90;;;;;;4141422;28;20739;-61
2021/03/12 04:50:39;;;;;;;38.57;19.57;;;0.50;99.90;;;;;;4140058;28;20306;-60
2021/03/12 04:52:41;;;;;;;43.67;20.33;;;0.50;99.90;;;;;;4140543;28;20305;-60
2021/03/12 04:54:47;;;;;;;41.60;21.10;;;0.40;99.90;;;;;;4140419;28;20321;-60
2021/03/12 04:56:49;;;;;;;41.47;20.23;;;0.30;99.90;;;;;;4139906;28;20819;-61
2021/03/12 04:58:51;;;;;;;41.37;20.13;;;0.30;99.90;;;;;;4152435;28;20356;-61
2021/03/12 05:00:53;;;;;;;45.60;21.00;;;0.30;99.90;;;;;;4159200;28;20324;-61
2021/03/12 05:02:55;;;;;;;48.20;23.57;;;0.30;99.90;;;;;;4156296;28;20302;-61
2021/03/12 05:04:58;;;;;;;48.20;23.90;;;0.20;99.90;;;;;;4156073;28;20358;-62
2021/03/12 05:06:59;;;;;;;50.50;23.90;;;0.20;99.90;;;;;;4155856;28;20372;-60
2021/03/12 05:09:01;;;;;;;38.50;21.07;;;0.20;99.90;;;;;;4138261;28;20398;-61
2021/03/12 05:11:09;;;;;;;45.27;22.47;;;0.20;99.90;;;;;;4157359;28;20620;-63
2021/03/12 05:13:11;;;;;;;50.57;22.80;;;0.10;99.90;;;;;;4155307;28;20313;-59
2021/03/12 05:15:12;;;;;;;40.73;21.80;;;0.10;99.90;;;;;;4155916;28;20271;-62
2021/03/12 05:17:13;;;;;;;44.37;22.60;;;0.10;99.90;;;;;;4156176;28;20747;-63
2021/03/12 05:19:14;;;;;;;44.23;23.80;;;0.10;99.90;;;;;;4156960;28;20332;-64
2021/03/12 05:21:15;;;;;;;45.50;24.10;;;0.10;99.90;;;;;;4155135;28;20282;-61
2021/03/12 05:23:18;;;;;;;48.53;22.43;;;0.20;99.90;;;;;;4156798;28;20290;-62
2021/03/12 05:25:20;;;;;;;51.67;23.97;;;0.20;99.90;;;;;;4156275;28;20317;-60
2021/03/12 05:27:21;;;;;;;49.40;25.13;;;0.20;99.90;;;;;;4156065;28;20758;-59
2021/03/12 05:29:22;;;;;;;50.50;24.23;;;0.20;99.90;;;;;;4156200;28;20255;-62
2021/03/12 05:31:25;;;;;;;48.90;23.43;;;0.20;99.90;;;;;;4154887;28;20356;-62
2021/03/12 05:33:26;;;;;;;52.87;23.50;;;0.20;99.90;;;;;;4156081;28;20254;-60
2021/03/12 05:35:27;;;;;;;56.73;25.70;;;0.20;99.90;;;;;;4155349;28;20325;-63
2021/03/12 05:37:28;;;;;;;51.33;24.73;;;0.20;99.90;;;;;;4155530;28;20261;-60
2021/03/12 05:39:29;;;;;;;45.17;21.37;;;0.20;99.90;;;;;;4156277;28;20662;-64
2021/03/12 05:41:32;;;;;;;48.80;22.67;;;0.20;99.90;;;;;;4156056;28;20353;-60
2021/03/12 05:43:33;;;;;;;55.73;24.67;;;0.20;99.90;;;;;;4155002;28;20302;-60
2021/03/12 05:45:35;;;;;;;60.73;26.90;;;0.20;99.90;;;;;;4156354;28;20263;-63
2021/03/12 05:47:37;;;;;;;58.70;26.73;;;0.20;99.90;;;;;;4155221;28;20341;-62
2021/03/12 05:49:38;;;;;;;58.93;26.53;;;0.20;99.90;;;;;;4154950;28;20685;-61
2021/03/12 05:51:39;;;;;;;60.53;25.80;;;0.30;99.90;;;;;;4154813;28;20330;-64
2021/03/12 05:53:41;;;;;;;51.10;25.10;;;0.20;99.90;;;;;;4155328;28;20283;-58
2021/03/12 05:55:42;;;;;;;51.73;23.17;;;0.20;99.90;;;;;;4155194;28;20320;-60
2021/03/12 05:57:44;;;;;;;52.93;24.30;;;0.30;99.90;;;;;;4155467;28;20352;-63
2021/03/12 05:59:45;;;;;;;51.83;24.50;;;0.30;99.90;;;;;;4154743;28;20283;-65
2021/03/12 06:01:46;;;;;;;55.50;25.63;;;0.30;99.90;;;;;;4155141;28;20274;-61
2021/03/12 06:03:47;;;;;;;52.27;23.43;;;0.30;99.90;;;;;;4155631;28;20290;-60
2021/03/12 06:05:48;;;;;;;56.67;26.60;;;0.30;99.90;;;;;;4155325;28;20293;-64
2021/03/12 06:07:50;;;;;;;47.77;23.87;;;0.40;99.90;;;;;;4155727;28;20278;-62
2021/03/12 06:09:51;;;;;;;51.30;23.70;;;0.40;99.90;;;;;;4155394;28;20262;-62
2021/03/12 06:11:53;;;;;;;56.83;23.57;;;0.40;99.90;;;;;;4154956;28;20764;-60
2021/03/12 06:13:55;;;;;;;44.03;21.20;;;0.50;99.90;;;;;;4154831;28;20295;-62
2021/03/12 06:15:57;;;;;;;46.40;21.10;;;0.50;99.90;;;;;;4155830;28;20267;-64
2021/03/12 06:17:58;;;;;;;50.27;22.20;;;0.50;99.90;;;;;;4154755;28;20259;-59
2021/03/12 06:20:00;;;;;;;47.87;23.57;;;0.50;99.90;;;;;;4155793;28;20329;-58
2021/03/12 06:22:08;;;;;;;41.63;20.47;;;0.50;99.90;;;;;;4154472;28;20329;-60
2021/03/12 06:24:29;;;;;;;48.87;21.47;;;0.50;99.90;;;;;;4137066;28;20337;-60
2021/03/12 06:26:45;;;;;;;42.67;21.43;;;0.50;99.90;;;;;;4154480;28;20755;-65
2021/03/12 06:29:07;;;;;;;43.47;20.77;;;0.60;99.90;;;;;;4155341;28;20278;-59
2021/03/12 06:31:30;;;;;;;47.43;22.70;;;0.60;99.90;;;;;;4154066;28;20263;-58
2021/03/12 06:33:33;;;;;;;38.87;20.17;;;0.60;99.90;;;;;;4153932;28;20333;-58
2021/03/12 06:35:37;;;;;;;42.00;19.07;;;0.60;99.90;;;;;;4148220;28;20723;-64
2021/03/12 06:37:39;;;;;;;37.33;18.20;;;0.60;99.90;;;;;;4154388;28;20271;-57
2021/03/12 06:39:42;;;;;;;38.33;17.57;;;0.60;99.90;;;;;;4154494;28;20267;-58
2021/03/12 06:41:45;;;;;;;32.40;16.37;;;0.60;99.90;;;;;;4153759;28;20279;-64
2021/03/12 06:43:46;;;;;;;35.93;16.63;;;0.60;99.90;;;;;;4153844;28;20299;-59
2021/03/12 06:45:50;;;;;;;32.03;16.33;;;0.60;99.90;;;;;;4155854;28;20320;-60
2021/03/12 06:47:52;;;;;;;34.00;16.33;;;0.50;99.90;;;;;;4155148;28;20333;-59
2021/03/12 06:49:59;;;;;;;33.83;16.57;;;0.60;99.90;;;;;;4156106;28;20271;-59
2021/03/12 06:52:03;;;;;;;38.30;17.97;;;0.60;99.90;;;;;;4154861;28;20332;-57
2021/03/12 06:54:07;;;;;;;33.53;17.13;;;0.70;99.90;;;;;;4155862;28;20846;-58
2021/03/12 06:56:10;;;;;;;35.80;17.03;;;0.80;99.90;;;;;;4155354;28;20270;-60
2021/03/12 06:58:11;;;;;;;30.60;15.77;;;0.80;99.90;;;;;;4155492;28;20837;-58
2021/03/12 07:00:13;;;;;;;34.30;17.57;;;0.90;99.90;;;;;;4155322;28;20313;-57
2021/03/12 07:02:15;;;;;;;42.17;18.70;;;1.00;99.90;;;;;;4155779;28;20278;-61
2021/03/12 07:04:16;;;;;;;36.63;18.07;;;1.10;99.90;;;;;;4153036;28;20274;-54
2021/03/12 07:06:17;;;;;;;35.57;17.60;;;1.20;99.90;;;;;;4153732;28;20275;-58
2021/03/12 07:08:37;;;;;;;44.07;18.87;;;1.30;99.90;;;;;;4154583;28;20348;-59
2021/03/12 07:10:38;;;;;;;35.75;17.45;;;1.30;99.90;;;;;;4156082;28;20313;-59
2021/03/12 07:12:52;;;;;;;31.90;15.90;;;1.40;99.90;;;;;;4155764;28;20033;-58
2021/03/12 07:14:55;;;;;;;32.50;15.57;;;1.40;99.90;;;;;;4155408;28;20267;-53
2021/03/12 07:17:00;;;;;;;34.97;17.03;;;1.50;99.90;;;;;;4155601;28;20669;-59
2021/03/12 07:19:01;;;;;;;32.93;16.40;;;1.50;99.90;;;;;;4156702;28;20259;-59
2021/03/12 07:21:03;;;;;;;35.03;17.03;;;1.70;99.90;;;;;;4157876;28;20628;-56
2021/03/12 07:23:06;;;;;;;32.20;17.33;;;1.80;99.90;;;;;;4158028;28;20344;-56
2021/03/12 07:25:08;;;;;;;28.93;13.70;;;1.90;99.90;;;;;;4158544;28;20318;-58
2021/03/12 07:27:11;;;;;;;21.47;10.80;;;2.00;99.90;;;;;;4154651;28;20258;-56
2021/03/12 07:29:13;;;;;;;21.93;11.23;;;2.00;99.90;;;;;;4157567;28;20792;-59
2021/03/12 07:31:16;;;;;;;27.90;13.93;;;2.20;99.90;;;;;;4156181;28;20283;-58
2021/03/12 07:33:25;;;;;;;23.00;12.20;;;2.30;99.90;;;;;;4158295;28;20755;-59
2021/03/12 07:37:36;;;;;;;18.47;9.83;;;2.50;99.90;;;;;;4151197;28;20310;-58
2021/03/12 07:39:42;;;;;;;24.30;12.70;;;2.60;99.90;;;;;;4158376;28;20302;-60
2021/03/12 07:41:44;;;;;;;28.07;12.87;;;2.60;99.90;;;;;;4160106;28;20329;-59
2021/03/12 07:43:46;;;;;;;23.40;11.93;;;2.70;99.90;;;;;;4158087;28;20815;-63
2021/03/12 07:45:48;;;;;;;27.60;13.33;;;2.70;99.90;;;;;;4159929;28;20275;-60
2021/03/12 07:47:49;;;;;;;23.77;13.30;;;2.80;99.90;;;;;;4159034;28;20278;-59
2021/03/12 07:49:51;;;;;;;23.33;12.00;;;2.80;99.90;;;;;;4156615;28;20271;-58
2021/03/12 07:51:52;;;;;;;23.37;12.47;;;2.90;99.90;;;;;;4159622;28;20738;-57
2021/03/12 07:53:57;;;;;;;29.67;14.77;;;2.90;99.90;;;;;;4162794;28;20271;-58
2021/03/12 07:55:58;;;;;;;24.40;11.20;;;3.00;99.90;;;;;;4161337;28;20270;-58
2021/03/12 07:57:59;;;;;;;18.87;10.83;;;3.10;99.90;;;;;;4163329;28;20710;-53
2021/03/12 08:00:01;;;;;;;20.27;10.53;;;3.20;99.90;;;;;;4161374;28;20251;-57
2021/03/12 08:02:02;;;;;;;18.53;9.87;;;3.20;99.90;;;;;;4163225;28;20309;-59
2021/03/12 08:04:30;;;;;;;17.37;9.17;;;3.20;99.90;;;;;;4162598;28;20302;-59
2021/03/12 08:06:33;;;;;;;18.20;10.07;;;3.20;99.90;;;;;;4162918;28;20673;-59
2021/03/12 08:08:40;;;;;;;20.77;10.67;;;3.20;99.90;;;;;;4162631;28;20328;-55
2021/03/12 08:10:41;;;;;;;24.83;12.23;;;3.20;99.90;;;;;;4162282;28;20271;-61
2021/03/12 08:12:42;;;;;;;24.40;12.63;;;3.20;99.90;;;;;;4162684;28;20283;-60
2021/03/12 08:15:03;;;;;;;20.90;10.63;;;3.30;99.90;;;;;;4162378;28;20349;-59
2021/03/12 08:17:04;;;;;;;24.27;11.40;;;3.30;99.90;;;;;;4162502;28;20271;-61
2021/03/12 08:19:28;;;;;;;18.23;9.70;;;3.30;99.90;;;;;;4162540;28;20274;-56
2021/03/12 08:21:32;;;;;;;16.93;9.53;;;3.10;99.90;;;;;;4161797;28;20266;-62
2021/03/12 08:23:35;;;;;;;17.90;9.90;;;3.10;99.90;;;;;;4162723;28;20287;-59
2021/03/12 08:25:39;;;;;;;17.13;9.03;;;3.00;99.90;;;;;;4162193;28;20317;-58
2021/03/12 08:27:42;;;;;;;22.87;12.80;;;2.90;99.90;;;;;;4162611;28;20309;-54
2021/03/12 08:29:44;;;;;;;24.40;11.47;;;2.90;99.90;;;;;;4163211;28;20278;-58
2021/03/12 08:31:45;;;;;;;27.17;15.03;;;2.90;99.90;;;;;;4162035;28;20317;-58
2021/03/12 08:33:46;;;;;;;18.20;9.57;;;2.90;99.90;;;;;;4162983;28;21104;-55
2021/03/12 08:35:51;;;;;;;16.53;9.50;;;2.90;99.90;;;;;;4160792;28;20275;-60
2021/03/12 08:37:52;;;;;;;22.87;10.57;;;2.80;99.90;;;;;;4161457;28;20282;-61
2021/03/12 08:40:15;;;;;;;23.90;11.27;;;2.80;99.90;;;;;;4157647;28;20309;-58
2021/03/12 08:42:17;;;;;;;19.93;9.67;;;2.80;99.90;;;;;;4159427;28;20730;-58
2021/03/12 08:44:18;;;;;;;19.07;10.17;;;2.60;99.90;;;;;;4158085;28;20352;-62
2021/03/12 08:46:23;;;;;;;19.77;10.37;;;2.60;99.90;;;;;;4159119;28;20317;-59
2021/03/12 08:48:30;;;;;;;19.97;9.83;;;2.50;99.90;;;;;;4157664;28;20278;-59
2021/03/12 08:50:34;;;;;;;21.37;10.27;;;2.60;99.90;;;;;;4157824;28;20700;-60
2021/03/12 08:52:35;;;;;;;20.10;10.17;;;2.50;99.90;;;;;;4156850;28;20271;-57
2021/03/12 08:54:37;;;;;;;22.03;10.20;;;2.60;99.90;;;;;;4159066;28;20271;-58
2021/03/12 08:56:38;;;;;;;20.17;9.93;;;2.60;99.90;;;;;;4157708;28;20925;-57
2021/03/12 08:58:40;;;;;;;18.70;10.33;;;2.40;99.90;;;;;;4159324;28;20275;-57
2021/03/12 09:00:42;;;;;;;20.37;10.60;;;2.40;99.90;;;;;;4157015;28;20325;-59
2021/03/12 09:02:43;;;;;;;19.40;9.47;;;2.40;99.90;;;;;;4158641;28;20266;-59
2021/03/12 09:04:44;;;;;;;23.53;10.30;;;2.40;99.90;;;;;;4157088;28;20332;-53
2021/03/12 09:06:46;;;;;;;20.50;9.67;;;2.40;99.90;;;;;;4158394;28;20337;-59
2021/03/12 09:08:47;;;;;;;20.57;10.37;;;2.40;99.90;;;;;;4158510;28;20275;-60
2021/03/12 09:10:49;;;;;;;23.67;12.40;;;2.50;99.90;;;;;;4157933;28;20370;-59
2021/03/12 09:12:51;;;;;;;23.03;10.63;;;2.50;99.90;;;;;;4158535;28;20270;-55
2021/03/12 09:14:55;;;;;;;19.20;9.87;;;2.50;99.90;;;;;;4157361;28;20263;-58
2021/03/12 09:16:59;;;;;;;22.07;10.43;;;2.50;99.90;;;;;;4158580;28;20324;-58
2021/03/12 09:19:01;;;;;;;19.30;10.67;;;2.50;99.90;;;;;;4157042;28;20341;-53
2021/03/12 09:21:07;;;;;;;24.30;10.77;;;2.50;99.90;;;;;;4157269;28;20345;-61
2021/03/12 09:23:08;;;;;;;21.40;10.63;;;2.60;99.90;;;;;;4157520;28;20291;-59
2021/03/12 09:25:09;;;;;;;21.63;10.93;;;2.70;99.90;;;;;;4158488;28;20258;-54
2021/03/12 09:27:20;;;;;;;22.27;11.70;;;2.80;99.90;;;;;;4157296;28;20263;-57
2021/03/12 09:29:21;;;;;;;22.55;10.75;;;3.00;99.90;;;;;;4158302;28;20686;-57
2021/03/12 09:31:31;;;;;;;20.13;10.17;;;3.10;99.90;;;;;;4156647;28;20542;-62
2021/03/12 09:33:37;;;;;;;21.17;10.60;;;3.00;99.90;;;;;;4158283;28;20254;-58
2021/03/12 09:35:40;;;;;;;24.07;10.37;;;3.00;99.90;;;;;;4156370;28;20079;-58
2021/03/12 09:37:42;;;;;;;17.83;9.67;;;3.10;99.90;;;;;;4157265;28;20349;-57
2021/03/12 09:39:43;;;;;;;20.40;10.43;;;3.10;99.90;;;;;;4156524;28;20279;-59
2021/03/12 09:42:00;;;;;;;19.67;10.40;;;2.90;99.90;;;;;;4156888;28;20316;-59
2021/03/12 09:44:15;;;;;;;23.57;11.90;;;3.00;99.90;;;;;;4156748;28;20294;-58
2021/03/12 09:46:16;;;;;;;17.60;9.40;;;2.90;99.90;;;;;;4157998;28;20266;-59
2021/03/12 09:48:18;;;;;;;18.97;10.47;;;2.90;99.90;;;;;;4155696;28;20305;-58
2021/03/12 09:50:23;;;;;;;22.57;10.50;;;2.70;99.90;;;;;;4157063;28;20287;-58
2021/03/12 09:52:25;;;;;;;23.87;12.43;;;2.80;99.90;;;;;;4156732;28;20259;-58
2021/03/12 09:54:30;;;;;;;25.00;12.50;;;2.80;99.90;;;;;;4172089;28;20309;-59
2021/03/12 09:56:31;;;;;;;23.40;11.83;;;2.90;99.90;;;;;;4162763;28;20666;-59
2021/03/12 09:58:33;;;;;;;21.47;10.73;;;2.90;99.90;;;;;;4155905;28;21164;-60
2021/03/12 10:00:34;;;;;;;22.63;11.23;;;2.80;99.90;;;;;;4156910;28;20312;-58
2021/03/12 10:03:08;;;;;;;23.90;11.20;;;2.80;99.90;;;;;;4153882;28;20316;-60
2021/03/12 10:05:10;;;;;;;22.63;11.97;;;2.80;99.90;;;;;;4112474;28;20384;-57
2021/03/12 10:07:14;;;;;;;22.17;11.40;;;2.70;99.90;;;;;;4156500;28;20312;-55
2021/03/12 10:09:24;;;;;;;20.50;11.60;;;2.70;99.90;;;;;;4157085;28;20309;-58
2021/03/12 10:11:35;;;;;;;21.23;10.98;;;2.70;99.90;;;;;;4156226;28;20322;-58
2021/03/12 10:13:37;;;;;;;22.70;11.27;;;2.70;99.90;;;;;;4157141;28;20088;-55
2021/03/12 10:15:40;;;;;;;21.60;11.53;;;2.60;99.90;;;;;;4156236;28;20266;-57
2021/03/12 10:17:43;;;;;;;23.67;11.37;;;2.60;99.90;;;;;;4156206;28;20318;-57
2021/03/12 10:19:57;;;;;;;26.37;12.27;;;2.60;99.90;;;;;;4155051;28;20270;-58
2021/03/12 10:21:58;;;;;;;25.07;12.43;;;2.60;99.90;;;;;;4157119;28;20725;-58
2021/03/12 10:24:00;;;;;;;25.13;12.60;;;2.70;99.90;;;;;;4155305;28;20360;-63
2021/03/12 10:26:04;;;;;;;26.17;12.77;;;2.70;99.90;;;;;;4157433;28;20344;-63
2021/03/12 10:28:11;;;;;;;28.73;12.27;;;2.70;99.90;;;;;;4155985;28;20309;-57
2021/03/12 10:30:34;;;;;;;24.07;12.47;;;2.70;99.90;;;;;;4157323;28;20329;-56
2021/03/12 10:32:42;;;;;;;28.20;13.47;;;2.70;99.90;;;;;;4155673;28;20288;-56
2021/03/12 10:34:49;;;;;;;25.00;13.80;;;2.70;99.90;;;;;;4156828;28;20274;-58
2021/03/12 10:37:10;;;;;;;22.80;12.07;;;2.70;99.90;;;;;;4155545;28;20278;-57